• Join FlightAware (Why Join?)
  • Login
  • US Flag 
08:35PM EDT


 

Airport Tracker/Info


-or-


 

Live Flight TrackerFlight Track Log ✈ N839CA ✈ 23-Jun-2013 ✈ KROC - KEWR

Flight Track Log - Related Links

Times and Time Zones

All times are in EDT time to prevent confusion due to time zone crossing. See the N839CA flight status page for this flight to view local times or setup timezone preferences in your user account.

Time Position Orientation Groundspeed Altitude Reporting Facility
EDT Latitude Longitude Course Direction KTS MPH feet Rate Location/Type
02:17PM 43.1036 -77.6914 206° Southwest 121 139 1,100  Level Cleveland Center
02:19PM 43.0625 -77.7189 206° Southwest 140 161 2,500 1,140 Climbing Cleveland Center
02:19PM 43.0356 -77.7286 195° South 166 191 3,200 1,260 Climbing Cleveland Center
02:20PM 42.9942 -77.7417 193° South 160 184 4,600 1,260 Climbing Cleveland Center
02:21PM 42.9508 -77.7581 195° South 165 190 5,800 1,320 Climbing Cleveland Center
02:22PM 42.9094 -77.7711 193° South 183 211 7,300 1,320 Climbing Cleveland Center
02:23PM 42.8703 -77.7814 191° South 168 193 8,500 1,080 Climbing Cleveland Center
02:24PM 42.8261 -77.7722 171° South 168 193 9,500 660 Climbing Cleveland Center
02:25PM 42.7717 -77.7603 171° South 175 201 9,900 660 Climbing Cleveland Center
02:26PM 42.7153 -77.7489 172° South 195 224 10,900 780 Climbing Cleveland Center
02:27PM 42.6719 -77.6914 136° Southeast 209 241 11,500 660 Climbing Cleveland Center
02:28PM 42.6206 -77.6372 142° Southeast 216 249 12,300 720 Climbing Cleveland Center
02:29PM 42.5797 -77.5856 137° Southeast 216 249 13,000 180 Climbing Cleveland Center
02:32PM 42.4625 -77.4486 139° Southeast 238 274 13,000 -60 Level New York Center
02:33PM 42.4117 -77.3900 140° Southeast 238 274 12,900  Descending New York Center
02:34PM 42.3889 -77.3119 112° Southeast 229 264 13,000  Climbing New York Center
02:35PM 42.3772 -77.2208 100° East 229 264 13,000  Level New York Center
02:36PM 42.3633 -77.1297 102° East 234 269 13,000  Level New York Center
02:37PM 42.3475 -77.0356 103° East 246 283 13,000  Level New York Center
02:38PM 42.3317 -76.9358 102° East 257 296 13,000  Level New York Center
02:39PM 42.3161 -76.8364 102° East 263 303 13,000  Level New York Center
02:40PM 42.3003 -76.7367 102° East 268 308 13,000  Level New York Center
02:41PM 42.2825 -76.6369 104° East 268 308 13,000  Level New York Center
02:42PM 42.2644 -76.5344 103° East 268 308 13,000  Level New York Center
02:43PM 42.2506 -76.4325 100° East 268 308 13,000 -60 Level New York Center
02:45PM 42.2203 -76.2336 102° East 286 329 12,900 -60 Descending Boston Center
02:46PM 42.2047 -76.1344 102° East 280 322 12,900  Level Boston Center
02:47PM 42.1869 -76.0353 104° East 275 316 12,900  Level Boston Center
02:48PM 42.1714 -75.9364 102° East 275 316 12,900  Level Boston Center
02:49PM 42.1556 -75.8403 102° East 270 311 12,900  Level Boston Center
02:50PM 42.1378 -75.7414 104° East 270 311 12,900  Level Boston Center
02:51PM 42.1239 -75.6425 101° East 265 305 12,900  Level Boston Center
02:52PM 42.1078 -75.5408 102° East 265 305 12,900  Level Boston Center
02:53PM 42.0936 -75.4478 102° East 265 305 12,900  Level Boston Center
02:54PM 42.0711 -75.3517 107° East 265 305 12,900  Level Boston Center
02:55PM 42.0444 -75.2611 112° Southeast 265 305 12,900  Level Boston Center
02:56PM 42.0089 -75.1728 118° Southeast 259 298 13,000  Climbing Boston Center
02:57PM 41.9717 -75.0733 117° Southeast 264 304 13,000  Level Boston Center
02:58PM 41.9383 -74.9856 117° Southeast 271 312 13,000 -480 Level Boston Center
02:59PM 41.8792 -74.9244 142° Southeast 260 299 12,100 -900 Descending Boston Center
03:00PM 41.8300 -74.8919 154° Southeast 270 311 11,300 -1,140 Descending Boston Center
03:01PM 41.7397 -74.8244 151° Southeast 282 325 9,900 -1,500 Descending Boston Center
03:02PM 41.6942 -74.8006 159° South 271 312 8,400 -1,500 Descending Boston Center
03:03PM 41.6286 -74.7453 148° Southeast 253 291 7,000 -1,020 Descending Boston Center
03:04PM 41.5444 -74.6869 153° Southeast 242 278 6,200 -480 Descending Boston Center
03:05PM 41.4842 -74.6708 169° South 248 285 6,000 -120 Descending Boston Center
03:06PM 41.4075 -74.6542 171° South 248 285 6,000  Level Boston Center
03:07PM 41.3333 -74.6333 168° South 244 281 6,000 -60 Level New York TRACON
03:08PM 41.2667 -74.6000 159° South 248 285 5,900 -480 Descending New York TRACON
03:09PM 41.2333 -74.5167 118° Southeast 252 290 5,100 -480 Descending New York TRACON
03:10PM 41.2000 -74.4500 124° Southeast 218 251 5,000 -60 Descending New York TRACON
03:11PM 41.1833 -74.3833 108° East 210 242 5,000  Level New York TRACON
03:12PM 41.1500 -74.3167 124° Southeast 223 257 5,000 240 Level New York TRACON
03:13PM 41.1167 -74.2500 124° Southeast 224 258 5,500  Climbing New York TRACON
03:14PM 41.0667 -74.1833 135° Southeast 243 280 5,100 -660 Descending New York TRACON
03:15PM 41.0000 -74.1500 159° South 243 280 4,200 -780 Descending New York TRACON
03:16PM 40.9500 -74.1167 153° Southeast 229 264 3,600 -600 Descending New York TRACON
03:17PM 40.8833 -74.1000 169° South 218 251 3,100 -300 Descending New York TRACON
03:18PM 40.8333 -74.0833 166° South 201 231 3,000 -600 Descending New York TRACON
03:19PM 40.7833 -74.1000 194° South 198 228 2,000 -900 Descending New York TRACON
03:20PM 40.7500 -74.1333 217° Southwest 162 186 1,300 -840 Descending New York TRACON
03:21PM 40.7167 -74.1500 201° Southwest 116 133 300 -960 Descending New York TRACON
03:23PM 40.6925 -74.1687 196° South  Level Estimated